createdAt,value
2022-09-07T00:04:38.451Z,63.20
2022-09-07T00:09:42.964Z,62.40
2022-09-07T00:14:46.070Z,62.40
2022-09-07T00:19:49.792Z,62.40
2022-09-07T00:24:54.244Z,62.30
2022-09-07T00:29:57.342Z,62.30
2022-09-07T00:35:00.446Z,62.30
2022-09-07T00:40:05.680Z,62.30
2022-09-07T00:45:13.247Z,62.30
2022-09-07T00:50:21.296Z,62.30
2022-09-07T00:55:27.589Z,62.30
2022-09-07T01:00:31.619Z,62.30
2022-09-07T01:05:39.071Z,62.30
2022-09-07T01:10:43.808Z,62.20
2022-09-07T01:15:53.078Z,62.30
2022-09-07T01:21:21.974Z,62.20
2022-09-07T01:27:12.638Z,62.30
2022-09-07T01:32:26.634Z,62.20
2022-09-07T01:37:34.659Z,62.20
2022-09-07T01:42:45.967Z,62.20
2022-09-07T01:47:54.423Z,62.20
2022-09-07T01:53:02.552Z,62.20
2022-09-07T01:58:13.115Z,62.10
2022-09-07T02:03:22.686Z,62.10
2022-09-07T02:08:32.187Z,62.00
2022-09-07T02:13:38.844Z,62.10
2022-09-07T02:18:47.059Z,62.00
2022-09-07T02:23:53.130Z,62.00
2022-09-07T02:28:57.019Z,61.90
2022-09-07T02:34:02.000Z,61.90
2022-09-07T02:39:05.191Z,61.90
2022-09-07T02:44:11.779Z,61.90
2022-09-07T02:49:27.643Z,61.80
2022-09-07T02:54:46.553Z,61.80
2022-09-07T03:00:02.605Z,61.80
2022-09-07T03:05:13.476Z,61.70
2022-09-07T03:10:17.733Z,61.80
2022-09-07T03:15:24.465Z,61.80
2022-09-07T03:20:28.965Z,61.70
2022-09-07T03:25:32.103Z,61.70
2022-09-07T03:30:35.284Z,62.30
2022-09-07T03:35:39.829Z,61.60
2022-09-07T03:40:42.933Z,61.50
2022-09-07T03:45:46.053Z,61.60
2022-09-07T03:50:59.138Z,61.60
2022-09-07T03:56:05.346Z,61.60
2022-09-07T04:01:10.372Z,61.60
2022-09-07T04:06:15.843Z,61.50
2022-09-07T04:11:20.054Z,61.50
2022-09-07T04:16:25.780Z,61.40
2022-09-07T04:21:31.778Z,61.40
2022-09-07T04:26:37.075Z,61.40
2022-09-07T04:31:40.193Z,61.40
2022-09-07T04:36:44.659Z,61.40
2022-09-07T04:41:47.771Z,61.40
2022-09-07T04:46:50.843Z,61.40
2022-09-07T04:51:55.403Z,61.50
2022-09-07T04:56:58.527Z,61.40
2022-09-07T05:02:01.637Z,61.40
2022-09-07T05:07:06.177Z,61.40
2022-09-07T05:12:09.466Z,61.40
2022-09-07T05:17:12.580Z,61.50
2022-09-07T05:22:17.111Z,61.50
2022-09-07T05:27:20.340Z,61.60
2022-09-07T05:32:23.631Z,61.50
2022-09-07T05:37:28.155Z,61.40
2022-09-07T05:42:31.578Z,61.30
2022-09-07T05:47:34.680Z,61.40
2022-09-07T05:52:39.150Z,61.60
2022-09-07T05:57:42.234Z,63.00
2022-09-07T06:02:46.592Z,63.70
2022-09-07T06:07:51.197Z,64.50
2022-09-07T06:12:54.601Z,64.90
2022-09-07T06:17:57.730Z,64.90
2022-09-07T06:23:02.187Z,65.50
2022-09-07T06:28:05.263Z,65.90
2022-09-07T06:33:08.359Z,66.60
2022-09-07T06:38:12.835Z,66.90
2022-09-07T06:43:15.937Z,66.50
2022-09-07T06:48:19.025Z,66.90
2022-09-07T06:53:40.525Z,67.20
2022-09-07T06:58:46.451Z,67.60
2022-09-07T07:03:49.682Z,67.40
2022-09-07T07:08:55.845Z,67.60
2022-09-07T07:13:59.964Z,67.70
2022-09-07T07:19:03.079Z,67.40
2022-09-07T07:24:08.367Z,66.90
2022-09-07T07:29:12.853Z,66.80
2022-09-07T07:34:17.988Z,66.60
2022-09-07T07:44:45.783Z,66.10
2022-09-07T07:49:49.460Z,65.20
2022-09-07T07:54:54.126Z,64.70
2022-09-07T07:59:57.279Z,64.30
2022-09-07T08:05:01.046Z,63.50
2022-09-07T08:10:07.555Z,63.40
2022-09-07T08:15:11.172Z,63.40
2022-09-07T08:20:14.363Z,63.30
2022-09-07T08:25:19.191Z,63.20
2022-09-07T08:30:22.307Z,63.10
2022-09-07T08:35:25.292Z,62.90
2022-09-07T08:40:30.239Z,62.90
2022-09-07T08:45:37.932Z,62.80
2022-09-07T08:50:47.093Z,62.80
2022-09-07T08:55:57.035Z,62.40
2022-09-07T09:06:27.968Z,62.40
2022-09-07T09:11:43.648Z,62.30
2022-09-07T09:16:52.293Z,62.10
2022-09-07T09:22:16.636Z,62.10
2022-09-07T09:27:20.989Z,62.10
2022-09-07T09:32:39.897Z,61.90
2022-09-07T09:37:44.196Z,61.90
2022-09-07T09:42:48.847Z,61.70
2022-09-07T09:47:54.745Z,61.70
2022-09-07T09:52:58.593Z,61.50
2022-09-07T10:08:58.196Z,61.40
2022-09-07T10:14:04.362Z,61.30
2022-09-07T10:19:07.400Z,61.30
2022-09-07T10:24:16.280Z,61.30
2022-09-07T10:29:30.325Z,61.10
2022-09-07T10:34:44.946Z,61.20
2022-09-07T10:40:03.392Z,61.20
2022-09-07T10:45:18.254Z,61.20
2022-09-07T10:50:31.215Z,61.20
2022-09-07T10:55:37.654Z,61.10
2022-09-07T11:00:52.333Z,61.10
2022-09-07T11:06:05.928Z,61.10
2022-09-07T11:11:17.123Z,61.20
2022-09-07T11:21:57.723Z,61.20
2022-09-07T11:27:07.858Z,61.10
2022-09-07T11:32:17.575Z,61.00
2022-09-07T11:37:25.093Z,60.90
2022-09-07T11:42:49.060Z,61.70
2022-09-07T11:47:59.088Z,60.90
2022-09-07T11:53:05.867Z,60.80
2022-09-07T11:58:35.247Z,60.80
2022-09-07T12:04:07.341Z,60.90
2022-09-07T12:09:24.402Z,60.90
2022-09-07T12:14:35.223Z,60.90
2022-09-07T12:19:39.571Z,60.90
2022-09-07T12:24:45.277Z,60.90
2022-09-07T12:29:48.541Z,60.90
2022-09-07T12:34:55.278Z,60.90
2022-09-07T12:40:32.337Z,60.80
2022-09-07T12:45:52.939Z,60.90
2022-09-07T12:51:02.293Z,60.90
2022-09-07T12:56:25.786Z,60.80
2022-09-07T13:01:37.857Z,60.80
2022-09-07T13:07:19.538Z,60.80
2022-09-07T13:17:57.356Z,60.80
2022-09-07T13:23:28.743Z,61.50
2022-09-07T13:28:54.838Z,60.80
2022-09-07T13:33:58.139Z,60.70
2022-09-07T13:39:01.159Z,60.70
2022-09-07T13:44:05.962Z,60.70
2022-09-07T13:49:19.324Z,60.70
2022-09-07T13:54:30.935Z,60.70
2022-09-07T13:59:36.979Z,60.70
2022-09-07T14:04:44.326Z,60.60
2022-09-07T14:09:48.830Z,60.70
2022-09-07T14:15:18.092Z,60.70
2022-09-07T14:20:22.411Z,60.70
2022-09-07T14:25:26.451Z,60.60
2022-09-07T14:30:33.249Z,60.60
2022-09-07T14:35:39.456Z,60.60
2022-09-07T14:40:42.818Z,60.70
2022-09-07T14:45:47.190Z,60.60
2022-09-07T14:51:01.027Z,60.60
2022-09-07T14:56:20.858Z,60.70
2022-09-07T15:01:41.762Z,60.60
2022-09-07T15:07:02.173Z,60.60
2022-09-07T15:12:27.307Z,60.60
2022-09-07T15:17:44.795Z,60.70
2022-09-07T15:22:48.065Z,60.70
2022-09-07T15:27:51.071Z,60.70
2022-09-07T15:32:56.860Z,60.70
2022-09-07T15:38:05.256Z,60.80
2022-09-07T15:43:20.002Z,60.80
2022-09-07T15:48:25.975Z,60.90
2022-09-07T15:58:56.071Z,61.70
2022-09-07T16:04:01.707Z,62.10
2022-09-07T16:09:07.429Z,62.80
2022-09-07T16:14:11.708Z,62.70
2022-09-07T16:19:20.627Z,62.60
2022-09-07T16:24:23.754Z,62.50
2022-09-07T16:29:26.782Z,62.40
2022-09-07T16:34:31.112Z,62.70
2022-09-07T16:39:34.111Z,62.70
2022-09-07T16:44:37.167Z,62.90
2022-09-07T16:49:41.639Z,64.90
2022-09-07T16:54:44.566Z,66.30
2022-09-07T16:59:49.162Z,65.30
2022-09-07T17:04:53.500Z,62.60
2022-09-07T17:09:56.583Z,60.50
2022-09-07T17:14:59.558Z,59.00
2022-09-07T17:20:04.410Z,59.00
2022-09-07T17:25:07.990Z,59.10
2022-09-07T17:30:11.775Z,59.80
2022-09-07T17:35:16.254Z,60.10
2022-09-07T17:40:19.298Z,60.60
2022-09-07T17:45:22.281Z,60.80
2022-09-07T17:50:26.585Z,61.00
2022-09-07T17:55:31.610Z,61.00
2022-09-07T18:00:35.406Z,61.00
2022-09-07T18:05:39.880Z,61.00
2022-09-07T18:16:12.160Z,61.20
2022-09-07T18:21:19.227Z,61.30
2022-09-07T18:26:22.255Z,61.60
2022-09-07T18:31:25.906Z,61.70
2022-09-07T18:36:31.083Z,61.40
2022-09-07T18:41:34.628Z,61.40
2022-09-07T18:46:37.609Z,61.10
2022-09-07T18:57:06.729Z,60.70
2022-09-07T19:02:10.565Z,60.70
2022-09-07T19:07:15.476Z,61.00
2022-09-07T19:12:18.412Z,61.10
2022-09-07T19:17:21.341Z,61.40
2022-09-07T19:22:27.265Z,61.40
2022-09-07T19:27:32.813Z,62.10
2022-09-07T19:32:35.816Z,61.30
2022-09-07T19:37:40.202Z,61.00
2022-09-07T19:42:43.211Z,60.70
2022-09-07T19:47:46.287Z,60.30
2022-09-07T19:52:50.851Z,60.80
2022-09-07T19:57:53.802Z,61.00
2022-09-07T20:02:56.746Z,61.30
2022-09-07T20:08:01.043Z,61.00
2022-09-07T20:13:04.581Z,60.80
2022-09-07T20:18:07.526Z,61.30
2022-09-07T20:23:11.823Z,61.60
2022-09-07T20:28:15.141Z,62.10
2022-09-07T20:33:18.607Z,62.60
2022-09-07T20:38:22.920Z,61.80
2022-09-07T20:43:26.200Z,61.70
2022-09-07T20:48:29.219Z,61.70
2022-09-07T20:53:33.733Z,61.70
2022-09-07T20:58:36.803Z,62.40
2022-09-07T21:03:40.007Z,61.60
2022-09-07T21:08:45.612Z,61.50
2022-09-07T21:13:49.094Z,61.50
2022-09-07T21:18:54.789Z,61.50
2022-09-07T21:24:00.905Z,61.60
2022-09-07T21:29:06.034Z,61.60
2022-09-07T21:34:10.015Z,61.50
2022-09-07T21:39:14.915Z,61.50
2022-09-07T21:44:18.293Z,61.40
2022-09-07T21:49:21.226Z,61.50
2022-09-07T21:54:25.710Z,61.40
2022-09-07T21:59:28.634Z,61.40
2022-09-07T22:04:31.602Z,61.30
2022-09-07T22:09:35.907Z,61.30
2022-09-07T22:14:39.056Z,61.30
2022-09-07T22:19:42.333Z,61.30
2022-09-07T22:24:46.639Z,61.20
2022-09-07T22:29:49.583Z,61.20
2022-09-07T22:34:52.691Z,61.20
2022-09-07T22:39:57.011Z,61.20
2022-09-07T22:44:59.984Z,61.20
2022-09-07T22:50:02.935Z,61.20
2022-09-07T22:55:08.408Z,61.30
2022-09-07T23:00:13.242Z,61.30
2022-09-07T23:05:16.363Z,61.40
2022-09-07T23:10:20.663Z,61.40
2022-09-07T23:15:23.824Z,62.20
2022-09-07T23:20:26.755Z,61.50
2022-09-07T23:25:31.063Z,61.50
2022-09-07T23:30:35.473Z,61.50
2022-09-07T23:35:38.414Z,61.40
2022-09-07T23:40:43.195Z,62.10
2022-09-07T23:45:46.118Z,61.40
2022-09-07T23:50:49.783Z,61.30
2022-09-07T23:55:54.127Z,61.10
